SBGO/GYN METAR and TAF weather

Enter ICAO airport designator
Station Type Date Time Source
SBGO METAR 2022/09/26 10:00 UTC NOAA

SBGO 261000Z 10006KT CAVOK 23/18 Q1018


Station Type Date Time Source
SBGO Decoded METAR 2022/09/26 10:00 UTC NOAA

Goiania Aeroporto , Brazil (SBGO) 16-38S 049-13W
Sep 26, 2022 - 06:00 AM EDT / 2022.09.26 1000 UTC
Wind: from the E (100 degrees) at 7 MPH (6 KT):0
Visibility: greater than 7 mile(s):0
Temperature: 73 F (23 C)
Dew Point: 64 F (18 C)
Relative Humidity: 73%
Pressure (altimeter): 30.06 in. Hg (1018 hPa)
ob: SBGO 261000Z 10006KT CAVOK 23/18 Q1018
cycle: 10

Station Type Date Time Source
SBGO TAF 2022/09/26 12:12 UTC NOAA

TAF SBGO 260800Z 2612/2712 02010KT CAVOK TX32/2618Z TN22/2709Z
BECMG 2613/2615 SCT045 FEW050TCU
BECMG 2619/2621 36003KT
BECMG 2621/2623 09005KT FEW047 PROB30
TEMPO 2623/2704 09005KT TSRA SCT035 FEW045CB
BECMG 2704/2706 SCT030
BECMG 2709/2711 FEW045
RMK PGE

Example: see airport list